KRHV/RHV METAR and TAF weather

Enter ICAO airport designator
Station Type Date Time Source
KRHV METAR 2019/12/13 02:47 UTC NOAA

KRHV 130247Z 26003KT 9SM BKN015 OVC180 17/15 A3028


Station Type Date Time Source
KRHV Decoded METAR 2019/12/13 02:47 UTC NOAA

San Jose / Reid / Hillv, CA, United States (KRHV) 37-20N 121-49W
Dec 12, 2019 - 09:47 PM EST / 2019.12.13 0247 UTC
Wind: from the W (260 degrees) at 3 MPH (3 KT):0
Visibility: 9 mile(s):0
Sky conditions: overcast
Temperature: 62 F (17 C)
Dew Point: 59 F (15 C)
Relative Humidity: 88%
Pressure (altimeter): 30.28 in. Hg (1025 hPa)
ob: KRHV 130247Z 26003KT 9SM BKN015 OVC180 17/15 A3028
cycle: 3

Station Type Date Time Source
KRHV TAF UTC NOAA

Error!

Example: see airport list